createdAt,value
2023-03-27T00:02:04.854Z,1.16
2023-03-27T00:04:31.478Z,1.13
2023-03-27T00:06:59.438Z,1.08
2023-03-27T00:09:27.261Z,1.03
2023-03-27T00:11:56.230Z,1.04
2023-03-27T00:14:23.864Z,1.07
2023-03-27T00:16:51.002Z,0.98
2023-03-27T00:19:18.790Z,0.91
2023-03-27T00:21:45.307Z,0.88
2023-03-27T00:24:11.819Z,0.91
2023-03-27T00:26:40.577Z,0.88
2023-03-27T00:29:07.751Z,0.78
2023-03-27T00:31:34.576Z,0.74
2023-03-27T00:34:01.802Z,0.71
2023-03-27T00:36:28.339Z,0.68
2023-03-27T00:38:54.841Z,0.72
2023-03-27T00:41:21.411Z,0.59
2023-03-27T00:43:48.604Z,0.55
2023-03-27T00:46:14.951Z,0.57
2023-03-27T00:48:41.876Z,0.54
2023-03-27T00:51:08.353Z,0.55
2023-03-27T00:53:34.817Z,0.50
2023-03-27T00:56:03.353Z,0.47
2023-03-27T00:58:32.278Z,0.40
2023-03-27T01:00:59.501Z,0.42
2023-03-27T01:03:29.733Z,0.40
2023-03-27T01:05:56.290Z,0.37
2023-03-27T01:08:22.844Z,0.39
2023-03-27T01:10:51.940Z,0.21
2023-03-27T01:13:47.077Z,0.33
2023-03-27T01:16:22.738Z,0.30
2023-03-27T01:19:00.872Z,0.27
2023-03-27T01:22:10.444Z,0.28
2023-03-27T01:24:47.744Z,0.20
2023-03-27T01:27:58.522Z,0.22
2023-03-27T01:30:36.673Z,0.22
2023-03-27T01:33:36.682Z,0.20
2023-03-27T01:36:30.516Z,0.16
2023-03-27T01:39:18.752Z,0.18
2023-03-27T01:41:52.994Z,0.19
2023-03-27T01:44:44.883Z,0.21
2023-03-27T01:47:42.512Z,0.17
2023-03-27T01:50:17.321Z,0.18
2023-03-27T01:52:47.427Z,0.14
2023-03-27T01:55:15.792Z,0.14
2023-03-27T01:57:49.315Z,0.19
2023-03-27T02:00:21.874Z,0.09
2023-03-27T02:02:52.443Z,0.15
2023-03-27T02:05:29.733Z,0.04
2023-03-27T02:08:12.087Z,0.02
2023-03-27T02:10:41.606Z,-0.03
2023-03-27T02:13:12.266Z,-0.01
2023-03-27T02:15:40.645Z,-0.05
2023-03-27T02:18:10.078Z,-0.05
2023-03-27T02:20:37.628Z,-0.11
2023-03-27T02:23:04.614Z,-0.01
2023-03-27T02:25:39.646Z,-0.08
2023-03-27T02:28:30.802Z,-0.03
2023-03-27T02:31:06.037Z,-0.16
2023-03-27T02:34:14.170Z,-0.19
2023-03-27T02:37:02.144Z,-0.39
2023-03-27T02:39:48.865Z,-0.28
2023-03-27T02:42:19.718Z,-0.41
2023-03-27T02:44:55.047Z,-0.30
2023-03-27T02:48:01.988Z,-0.21
2023-03-27T02:50:31.780Z,-0.21
2023-03-27T02:53:00.142Z,-0.16
2023-03-27T02:55:33.250Z,-0.06
2023-03-27T02:58:02.254Z,-0.07
2023-03-27T03:00:30.150Z,-0.06
2023-03-27T03:03:27.854Z,-0.05
2023-03-27T03:05:55.195Z,-0.01
2023-03-27T03:08:21.768Z,0.00
2023-03-27T03:10:48.316Z,0.07
2023-03-27T03:13:15.470Z,0.03
2023-03-27T03:15:41.933Z,-0.01
2023-03-27T03:18:09.318Z,-0.01
2023-03-27T03:20:36.367Z,-0.04
2023-03-27T03:23:02.924Z,-0.07
2023-03-27T03:25:31.231Z,-0.02
2023-03-27T03:28:00.334Z,-0.05
2023-03-27T03:30:30.376Z,0.05
2023-03-27T03:32:56.897Z,0.03
2023-03-27T03:35:24.647Z,0.06
2023-03-27T03:37:51.644Z,-0.04
2023-03-27T03:40:19.060Z,-0.01
2023-03-27T03:42:50.363Z,-0.01
2023-03-27T03:45:17.197Z,0.01
2023-03-27T03:47:44.035Z,0.02
2023-03-27T03:50:10.874Z,0.03
2023-03-27T03:52:37.374Z,0.07
2023-03-27T03:55:04.608Z,-0.03
2023-03-27T03:57:31.152Z,-0.12
2023-03-27T03:59:58.395Z,-0.04
2023-03-27T04:02:29.001Z,-0.14
2023-03-27T04:04:56.735Z,-0.22
2023-03-27T04:07:23.505Z,-0.16
2023-03-27T04:09:50.669Z,-0.18
2023-03-27T04:12:17.662Z,-0.21
2023-03-27T04:14:44.575Z,-0.17
2023-03-27T04:17:11.434Z,-0.07
2023-03-27T04:19:37.928Z,-0.24
2023-03-27T04:22:05.625Z,-0.23
2023-03-27T04:24:32.083Z,-0.13
2023-03-27T04:27:01.092Z,-0.19
2023-03-27T04:29:30.497Z,-0.13
2023-03-27T04:31:57.468Z,-0.14
2023-03-27T04:34:24.319Z,-0.22
2023-03-27T04:36:51.145Z,-0.32
2023-03-27T04:39:18.310Z,-0.33
2023-03-27T04:41:50.749Z,-0.34
2023-03-27T04:44:17.581Z,-0.38
2023-03-27T04:46:44.913Z,-0.41
2023-03-27T04:49:11.643Z,-0.28
2023-03-27T04:51:38.513Z,-0.27
2023-03-27T04:54:05.100Z,-0.37
2023-03-27T04:56:33.758Z,-0.49
2023-03-27T04:59:01.352Z,-0.48
2023-03-27T05:01:28.666Z,-0.50
2023-03-27T05:03:56.290Z,-0.49
2023-03-27T05:06:23.205Z,-0.48
2023-03-27T05:08:50.175Z,-0.61
2023-03-27T05:11:16.673Z,-0.54
2023-03-27T05:13:43.433Z,-0.63
2023-03-27T05:16:10.164Z,-0.64
2023-03-27T05:18:38.388Z,-0.54
2023-03-27T05:21:08.348Z,-0.67
2023-03-27T05:23:34.822Z,-0.75
2023-03-27T05:26:01.288Z,-0.67
2023-03-27T05:28:28.400Z,-0.70
2023-03-27T05:30:55.206Z,-0.59
2023-03-27T05:33:21.912Z,-0.56
2023-03-27T05:35:52.544Z,-0.51
2023-03-27T05:38:19.660Z,-0.32
2023-03-27T05:40:46.125Z,-0.28
2023-03-27T05:43:12.627Z,-0.27
2023-03-27T05:45:39.079Z,-0.25
2023-03-27T05:48:05.755Z,-0.16
2023-03-27T05:50:34.506Z,-0.21
2023-03-27T05:53:02.539Z,-0.14
2023-03-27T05:55:29.040Z,-0.19
2023-03-27T05:57:55.575Z,-0.09
2023-03-27T06:00:25.751Z,-0.15
2023-03-27T06:02:56.418Z,0.01
2023-03-27T06:05:23.072Z,0.14
2023-03-27T06:07:50.690Z,0.24
2023-03-27T06:10:26.787Z,0.30
2023-03-27T06:13:06.432Z,0.30
2023-03-27T06:15:33.304Z,0.31
2023-03-27T06:17:59.846Z,0.31
2023-03-27T06:20:26.632Z,0.38
2023-03-27T06:22:55.629Z,0.45
2023-03-27T06:25:22.821Z,0.50
2023-03-27T06:27:49.757Z,0.42
2023-03-27T06:30:18.029Z,0.52
2023-03-27T06:32:52.180Z,0.61
2023-03-27T06:35:18.981Z,0.64
2023-03-27T06:37:48.824Z,0.84
2023-03-27T06:40:27.579Z,1.01
2023-03-27T06:42:55.974Z,1.21
2023-03-27T06:45:27.409Z,1.45
2023-03-27T06:48:13.626Z,1.60
2023-03-27T06:50:47.032Z,1.63
2023-03-27T06:53:26.702Z,1.62
2023-03-27T06:55:54.797Z,1.50
2023-03-27T06:58:21.785Z,1.37
2023-03-27T07:00:49.616Z,1.18
2023-03-27T07:03:16.533Z,0.96
2023-03-27T07:05:43.111Z,1.03
2023-03-27T07:10:44.631Z,1.10
2023-03-27T07:13:12.145Z,1.02
2023-03-27T07:15:38.695Z,1.07
2023-03-27T07:18:06.477Z,1.17
2023-03-27T07:20:33.611Z,1.41
2023-03-27T07:23:00.578Z,1.58
2023-03-27T07:25:28.323Z,1.64
2023-03-27T07:27:59.464Z,1.94
2023-03-27T07:30:25.979Z,1.88
2023-03-27T07:32:52.587Z,1.97
2023-03-27T07:35:19.733Z,2.22
2023-03-27T07:37:46.665Z,2.01
2023-03-27T07:40:29.381Z,2.04
2023-03-27T07:42:56.265Z,1.95
2023-03-27T07:45:24.032Z,1.93
2023-03-27T07:47:50.615Z,2.04
2023-03-27T07:50:20.301Z,2.26
2023-03-27T07:52:47.078Z,2.40
2023-03-27T07:55:14.738Z,2.57
2023-03-27T07:57:57.197Z,2.37
2023-03-27T08:00:27.785Z,2.56
2023-03-27T08:02:54.596Z,2.57
2023-03-27T08:05:21.284Z,2.67
2023-03-27T08:07:48.459Z,2.83
2023-03-27T08:10:16.030Z,2.90
2023-03-27T08:12:42.744Z,2.90
2023-03-27T08:15:09.492Z,3.10
2023-03-27T08:17:36.248Z,3.31
2023-03-27T08:20:06.855Z,3.25
2023-03-27T08:22:33.357Z,3.48
2023-03-27T08:24:59.809Z,4.06
2023-03-27T08:27:26.269Z,3.83
2023-03-27T08:29:53.106Z,3.77
2023-03-27T08:32:19.571Z,3.83
2023-03-27T08:34:46.175Z,4.08
2023-03-27T08:37:13.234Z,4.32
2023-03-27T08:39:39.708Z,4.65
2023-03-27T08:42:08.231Z,3.60
2023-03-27T08:44:34.792Z,3.90
2023-03-27T08:47:11.676Z,3.88
2023-03-27T08:49:41.155Z,3.71
2023-03-27T08:52:22.589Z,3.73
2023-03-27T08:54:58.214Z,4.01
2023-03-27T08:57:28.191Z,3.47
2023-03-27T08:59:59.650Z,3.29
2023-03-27T09:02:38.711Z,3.61
2023-03-27T09:05:09.332Z,4.37
2023-03-27T09:08:08.158Z,4.53
2023-03-27T09:10:45.859Z,4.51
2023-03-27T09:13:16.869Z,4.29
2023-03-27T09:15:55.487Z,4.00
2023-03-27T09:18:27.397Z,3.64
2023-03-27T09:20:56.344Z,3.48
2023-03-27T09:23:40.474Z,3.46
2023-03-27T09:26:14.776Z,4.11
2023-03-27T09:28:50.728Z,4.73
2023-03-27T09:31:46.026Z,5.05
2023-03-27T09:34:18.775Z,5.24
2023-03-27T09:36:45.305Z,4.84
2023-03-27T09:39:15.340Z,4.84
2023-03-27T09:41:44.465Z,4.64
2023-03-27T09:44:25.229Z,5.06
2023-03-27T09:46:58.080Z,4.85
2023-03-27T09:49:25.348Z,5.23
2023-03-27T09:52:00.064Z,4.62
2023-03-27T09:54:28.937Z,4.66
2023-03-27T09:57:03.354Z,4.46
2023-03-27T09:59:33.752Z,4.16
2023-03-27T10:02:09.407Z,4.43
2023-03-27T10:04:36.616Z,5.14
2023-03-27T10:07:06.911Z,5.65
2023-03-27T10:09:35.022Z,5.68
2023-03-27T10:12:07.900Z,5.06
2023-03-27T10:14:38.024Z,5.04
2023-03-27T10:17:05.200Z,5.10
2023-03-27T10:19:37.055Z,5.36
2023-03-27T10:22:14.413Z,5.06
2023-03-27T10:24:44.456Z,5.15
2023-03-27T10:27:18.851Z,5.37
2023-03-27T10:29:45.336Z,4.71
2023-03-27T10:32:11.869Z,4.64
2023-03-27T10:34:55.278Z,4.40
2023-03-27T10:37:26.547Z,4.25
2023-03-27T10:39:55.127Z,4.51
2023-03-27T10:42:22.810Z,5.65
2023-03-27T10:44:49.371Z,6.34
2023-03-27T10:47:18.505Z,6.16
2023-03-27T10:49:48.347Z,5.86
2023-03-27T10:52:27.987Z,5.45
2023-03-27T10:55:16.467Z,5.03
2023-03-27T10:57:42.929Z,4.81
2023-03-27T11:00:32.519Z,5.43
2023-03-27T11:03:31.061Z,5.18
2023-03-27T11:05:57.555Z,4.82
2023-03-27T11:08:31.281Z,3.99
2023-03-27T11:11:01.602Z,3.00
2023-03-27T11:13:32.263Z,2.22
2023-03-27T11:16:04.429Z,2.20
2023-03-27T11:18:34.648Z,1.98
2023-03-27T11:21:14.142Z,2.29
2023-03-27T11:23:48.373Z,2.24
2023-03-27T11:26:18.045Z,2.08
2023-03-27T11:29:04.176Z,2.39
2023-03-27T11:31:49.361Z,2.77
2023-03-27T11:34:36.324Z,3.92
2023-03-27T11:37:11.176Z,4.02
2023-03-27T11:39:49.886Z,4.96
2023-03-27T11:42:22.985Z,5.10
2023-03-27T11:44:49.545Z,5.37
2023-03-27T11:47:44.155Z,4.97
2023-03-27T11:50:24.422Z,5.07
2023-03-27T11:53:03.815Z,5.01
2023-03-27T11:55:44.284Z,4.35
2023-03-27T11:58:20.642Z,3.41
2023-03-27T12:00:57.032Z,2.44
2023-03-27T12:03:41.555Z,1.63
2023-03-27T12:06:31.185Z,1.32
2023-03-27T12:09:33.253Z,1.38
2023-03-27T12:12:34.389Z,1.51
2023-03-27T12:15:28.728Z,2.02
2023-03-27T12:18:35.260Z,2.44
2023-03-27T12:21:14.704Z,2.93
2023-03-27T12:23:51.550Z,4.34
2023-03-27T12:26:52.042Z,4.84
2023-03-27T12:29:43.750Z,5.50
2023-03-27T12:32:24.029Z,4.97
2023-03-27T12:34:50.873Z,4.42
2023-03-27T12:37:19.176Z,3.17
2023-03-27T12:39:50.792Z,2.78
2023-03-27T12:42:44.033Z,3.02
2023-03-27T12:45:17.831Z,4.05
2023-03-27T12:48:16.275Z,5.23
2023-03-27T12:50:52.116Z,5.67
2023-03-27T12:53:27.505Z,5.18
2023-03-27T12:56:20.934Z,5.45
2023-03-27T12:58:48.161Z,6.01
2023-03-27T13:01:52.061Z,4.91
2023-03-27T13:04:25.013Z,4.43
2023-03-27T13:07:06.129Z,3.35
2023-03-27T13:09:53.010Z,1.87
2023-03-27T13:12:42.463Z,1.50
2023-03-27T13:15:23.607Z,0.92
2023-03-27T13:18:10.204Z,0.66
2023-03-27T13:20:48.465Z,0.80
2023-03-27T13:23:40.040Z,0.82
2023-03-27T13:26:32.370Z,0.87
2023-03-27T13:28:58.882Z,0.90
2023-03-27T13:31:55.737Z,1.19
2023-03-27T13:34:40.749Z,1.56
2023-03-27T13:37:07.410Z,1.82
2023-03-27T13:39:55.628Z,2.70
2023-03-27T13:42:31.813Z,3.09
2023-03-27T13:44:59.272Z,3.28
2023-03-27T13:47:28.409Z,3.53
2023-03-27T13:50:06.923Z,4.05
2023-03-27T13:52:51.538Z,4.37
2023-03-27T13:55:34.654Z,4.39
2023-03-27T13:58:07.198Z,4.78
2023-03-27T14:00:47.382Z,4.74
2023-03-27T14:03:32.796Z,4.91
2023-03-27T14:06:23.618Z,4.84
2023-03-27T14:09:08.489Z,4.96
2023-03-27T14:11:53.658Z,4.69
2023-03-27T14:14:26.416Z,5.15
2023-03-27T14:17:08.156Z,5.00
2023-03-27T14:20:13.162Z,5.15
2023-03-27T14:22:48.341Z,5.61
2023-03-27T14:25:19.732Z,6.14
2023-03-27T14:27:49.734Z,6.20
2023-03-27T14:30:21.603Z,5.51
2023-03-27T14:32:51.493Z,6.05
2023-03-27T14:35:38.510Z,6.53
2023-03-27T14:38:24.789Z,6.09
2023-03-27T14:40:55.291Z,6.08
2023-03-27T14:43:22.066Z,6.25
2023-03-27T14:45:49.994Z,6.01
2023-03-27T14:48:37.313Z,5.74
2023-03-27T14:51:07.373Z,5.48
2023-03-27T14:53:44.356Z,5.71
2023-03-27T14:56:45.720Z,6.45
2023-03-27T14:59:14.020Z,6.71
2023-03-27T15:01:41.224Z,6.27
2023-03-27T15:04:07.792Z,6.17
2023-03-27T15:06:36.676Z,6.03
2023-03-27T15:09:06.653Z,5.69
2023-03-27T15:11:38.231Z,5.30
2023-03-27T15:14:20.896Z,5.22
2023-03-27T15:16:52.978Z,5.13
2023-03-27T15:19:20.961Z,4.75
2023-03-27T15:21:54.545Z,4.87
2023-03-27T15:24:21.411Z,4.78
2023-03-27T15:26:48.986Z,4.66
2023-03-27T15:29:42.552Z,4.41
2023-03-27T15:32:11.986Z,4.12
2023-03-27T15:34:45.949Z,3.42
2023-03-27T15:37:20.154Z,3.12
2023-03-27T15:40:41.788Z,3.07
2023-03-27T15:43:08.947Z,2.92
2023-03-27T15:45:38.111Z,2.86
2023-03-27T15:48:06.654Z,2.90
2023-03-27T15:50:33.416Z,2.87
2023-03-27T15:53:01.509Z,2.79
2023-03-27T15:55:55.883Z,2.79
2023-03-27T15:58:27.245Z,2.89
2023-03-27T16:00:58.184Z,2.91
2023-03-27T16:03:25.528Z,2.96
2023-03-27T16:05:56.285Z,3.02
2023-03-27T16:08:36.492Z,3.13
2023-03-27T16:11:03.553Z,3.23
2023-03-27T16:13:35.001Z,3.24
2023-03-27T16:16:11.618Z,3.20
2023-03-27T16:18:38.115Z,3.21
2023-03-27T16:21:09.235Z,3.11
2023-03-27T16:23:35.740Z,3.14
2023-03-27T16:26:02.264Z,3.29
2023-03-27T16:28:29.782Z,3.27
2023-03-27T16:30:57.795Z,3.04
2023-03-27T16:33:24.741Z,3.02
2023-03-27T16:35:51.378Z,2.94
2023-03-27T16:38:20.087Z,2.84
2023-03-27T16:40:46.616Z,2.79
2023-03-27T16:43:13.433Z,2.78
2023-03-27T16:45:39.966Z,2.78
2023-03-27T16:48:07.896Z,2.70
2023-03-27T16:50:34.498Z,2.61
2023-03-27T16:53:01.237Z,2.61
2023-03-27T16:55:27.696Z,2.57
2023-03-27T16:57:55.051Z,2.60
2023-03-27T17:00:24.266Z,2.61
2023-03-27T17:02:50.830Z,2.54
2023-03-27T17:05:17.579Z,2.69
2023-03-27T17:07:46.468Z,2.87
2023-03-27T17:10:13.222Z,3.03
2023-03-27T17:12:39.694Z,3.02
2023-03-27T17:15:06.805Z,2.97
2023-03-27T17:17:33.328Z,2.84
2023-03-27T17:20:00.583Z,2.88
2023-03-27T17:22:29.725Z,2.79
2023-03-27T17:24:57.658Z,2.75
2023-03-27T17:27:25.860Z,2.76
2023-03-27T17:29:52.390Z,2.57
2023-03-27T17:32:18.878Z,2.52
2023-03-27T17:34:45.694Z,2.52
2023-03-27T17:37:12.517Z,2.60
2023-03-27T17:39:39.425Z,2.62
2023-03-27T17:42:06.604Z,2.70
2023-03-27T17:44:33.101Z,2.69
2023-03-27T17:47:00.466Z,2.61
2023-03-27T17:49:29.542Z,2.63
2023-03-27T17:51:56.142Z,2.45
2023-03-27T17:54:22.656Z,2.56
2023-03-27T17:56:49.210Z,2.65
2023-03-27T17:59:15.761Z,2.65
2023-03-27T18:01:44.481Z,2.53
2023-03-27T18:04:12.016Z,2.57
2023-03-27T18:06:38.505Z,2.48
2023-03-27T18:09:04.983Z,2.50
2023-03-27T18:11:32.390Z,2.62
2023-03-27T18:13:58.928Z,2.56
2023-03-27T18:16:25.515Z,2.49
2023-03-27T18:18:54.732Z,2.42
2023-03-27T18:21:21.853Z,2.29
2023-03-27T18:23:48.302Z,2.38
2023-03-27T18:26:15.130Z,2.44
2023-03-27T18:28:41.613Z,2.33
2023-03-27T18:31:09.700Z,2.29
2023-03-27T18:33:36.434Z,2.21
2023-03-27T18:36:03.200Z,2.34
2023-03-27T18:38:29.836Z,2.16
2023-03-27T18:40:56.883Z,2.24
2023-03-27T18:43:23.741Z,2.02
2023-03-27T18:46:00.936Z,2.03
2023-03-27T18:48:28.000Z,2.12
2023-03-27T18:50:55.007Z,2.03
2023-03-27T18:53:21.713Z,2.06
2023-03-27T18:55:49.521Z,2.01
2023-03-27T18:58:16.207Z,1.92
2023-03-27T19:00:42.678Z,1.84
2023-03-27T19:03:15.713Z,1.86
2023-03-27T19:05:42.170Z,1.88
2023-03-27T19:08:08.671Z,1.97
2023-03-27T19:10:35.832Z,1.90
2023-03-27T19:13:02.879Z,1.95
2023-03-27T19:15:30.013Z,2.04
2023-03-27T19:17:56.546Z,1.90
2023-03-27T19:20:23.079Z,1.87
2023-03-27T19:22:49.629Z,1.63
2023-03-27T19:25:16.410Z,1.73
2023-03-27T19:27:43.105Z,1.69
2023-03-27T19:30:10.320Z,1.79
2023-03-27T19:32:37.455Z,1.98
2023-03-27T19:35:05.035Z,1.98
2023-03-27T19:37:31.799Z,1.98
2023-03-27T19:40:01.355Z,1.91
2023-03-27T19:42:28.554Z,2.01
2023-03-27T19:44:55.477Z,1.89
2023-03-27T19:47:21.992Z,1.91
2023-03-27T19:49:48.872Z,1.83
2023-03-27T19:52:19.784Z,1.77
2023-03-27T19:54:46.562Z,1.87
2023-03-27T19:57:13.209Z,1.82
2023-03-27T19:59:39.762Z,1.83
2023-03-27T20:02:06.647Z,1.75
2023-03-27T20:04:33.426Z,1.78
2023-03-27T20:07:01.693Z,1.73
2023-03-27T20:09:28.334Z,1.67
2023-03-27T20:11:55.041Z,1.59
2023-03-27T20:14:21.596Z,1.49
2023-03-27T20:16:48.234Z,1.43
2023-03-27T20:19:16.620Z,1.36
2023-03-27T20:21:43.482Z,1.42
2023-03-27T20:24:11.453Z,1.44
2023-03-27T20:26:41.799Z,1.38
2023-03-27T20:29:09.975Z,1.45
2023-03-27T20:31:36.500Z,1.36
2023-03-27T20:34:03.140Z,1.38
2023-03-27T20:36:29.776Z,1.41
2023-03-27T20:38:56.480Z,1.51
2023-03-27T20:41:22.978Z,1.45
2023-03-27T20:43:50.877Z,1.63
2023-03-27T20:46:17.980Z,1.60
2023-03-27T20:48:53.861Z,1.56
2023-03-27T20:51:23.980Z,1.59
2023-03-27T20:53:55.460Z,1.53
2023-03-27T20:56:22.263Z,1.66
2023-03-27T20:58:48.765Z,1.53
2023-03-27T21:01:19.208Z,1.46
2023-03-27T21:03:49.696Z,1.53
2023-03-27T21:06:18.524Z,1.37
2023-03-27T21:08:45.326Z,1.37
2023-03-27T21:11:11.834Z,1.44
2023-03-27T21:13:38.331Z,1.31
2023-03-27T21:16:05.282Z,1.20
2023-03-27T21:18:32.086Z,1.31
2023-03-27T21:20:58.803Z,1.25
2023-03-27T21:23:25.279Z,1.27
2023-03-27T21:25:51.816Z,1.24
2023-03-27T21:28:18.341Z,1.32
2023-03-27T21:30:46.304Z,1.28
2023-03-27T21:33:16.037Z,1.29
2023-03-27T21:35:45.524Z,1.30
2023-03-27T21:38:12.807Z,1.22
2023-03-27T21:40:39.465Z,1.28
2023-03-27T21:43:06.819Z,1.26
2023-03-27T21:45:33.300Z,1.16
2023-03-27T21:47:59.772Z,1.18
2023-03-27T21:50:26.296Z,1.15
2023-03-27T21:52:52.777Z,1.13
2023-03-27T21:55:19.262Z,1.22
2023-03-27T21:57:45.962Z,1.15
2023-03-27T22:00:14.290Z,1.08
2023-03-27T22:02:41.355Z,1.06
2023-03-27T22:05:08.056Z,1.06
2023-03-27T22:07:34.594Z,1.03
2023-03-27T22:10:01.575Z,0.93
2023-03-27T22:12:28.051Z,1.01
2023-03-27T22:14:54.514Z,0.96
2023-03-27T22:17:21.119Z,1.01
2023-03-27T22:19:47.594Z,1.02
2023-03-27T22:22:14.293Z,1.11
2023-03-27T22:24:40.808Z,1.14
2023-03-27T22:27:07.316Z,1.09
2023-03-27T22:29:33.929Z,1.16
2023-03-27T22:32:00.412Z,1.17
2023-03-27T22:34:27.159Z,1.20
2023-03-27T22:36:53.645Z,1.25
2023-03-27T22:39:20.225Z,1.28
2023-03-27T22:41:46.728Z,1.20
2023-03-27T22:44:13.210Z,1.15
2023-03-27T22:46:39.732Z,1.22
2023-03-27T22:49:06.400Z,1.18
2023-03-27T22:51:32.874Z,1.15
2023-03-27T22:54:01.447Z,1.11
2023-03-27T22:56:28.225Z,1.13
2023-03-27T22:58:54.689Z,1.01
2023-03-27T23:01:21.189Z,1.02
2023-03-27T23:03:47.798Z,1.00
2023-03-27T23:06:18.503Z,0.91
2023-03-27T23:08:45.029Z,0.93
2023-03-27T23:11:12.533Z,0.94
2023-03-27T23:13:39.085Z,0.94
2023-03-27T23:16:06.103Z,0.87
2023-03-27T23:18:32.653Z,0.89
2023-03-27T23:21:03.472Z,0.91
2023-03-27T23:23:30.378Z,0.88
2023-03-27T23:25:57.844Z,0.74
2023-03-27T23:28:24.922Z,0.68
2023-03-27T23:30:55.590Z,0.71
2023-03-27T23:33:24.791Z,0.81
2023-03-27T23:35:52.392Z,0.82
2023-03-27T23:38:19.136Z,0.73
2023-03-27T23:40:45.877Z,0.64
2023-03-27T23:43:12.366Z,0.80
2023-03-27T23:45:38.831Z,0.73
2023-03-27T23:48:05.983Z,0.71
2023-03-27T23:50:32.505Z,0.59
2023-03-27T23:52:59.030Z,0.55
2023-03-27T23:55:25.565Z,0.53
2023-03-27T23:57:52.021Z,0.52
